sensor_id;sensor_type;location;lat;lon;timestamp;P1;durP1;ratioP1;P2;durP2;ratioP2
47866;SDS011;33628;50.806;11.586;2023-05-07T00:02:17;43.25;;;25.42;;
47866;SDS011;33628;50.806;11.586;2023-05-07T00:04:44;42.97;;;25.38;;
47866;SDS011;33628;50.806;11.586;2023-05-07T00:07:11;41.65;;;25.08;;
47866;SDS011;33628;50.806;11.586;2023-05-07T00:09:38;39.78;;;24.92;;
47866;SDS011;33628;50.806;11.586;2023-05-07T00:12:06;42.58;;;24.40;;
47866;SDS011;33628;50.806;11.586;2023-05-07T00:14:33;40.17;;;24.85;;
47866;SDS011;33628;50.806;11.586;2023-05-07T00:16:59;44.03;;;25.27;;
47866;SDS011;33628;50.806;11.586;2023-05-07T00:19:27;40.63;;;23.88;;
47866;SDS011;33628;50.806;11.586;2023-05-07T00:21:54;37.88;;;24.42;;
47866;SDS011;33628;50.806;11.586;2023-05-07T00:24:21;41.22;;;24.02;;
47866;SDS011;33628;50.806;11.586;2023-05-07T00:26:48;38.42;;;24.10;;
47866;SDS011;33628;50.806;11.586;2023-05-07T00:29:14;43.55;;;25.08;;
47866;SDS011;33628;50.806;11.586;2023-05-07T00:31:41;41.00;;;24.58;;
47866;SDS011;33628;50.806;11.586;2023-05-07T00:34:08;43.15;;;23.98;;
47866;SDS011;33628;50.806;11.586;2023-05-07T00:36:36;40.58;;;24.77;;
47866;SDS011;33628;50.806;11.586;2023-05-07T00:39:03;46.95;;;24.30;;
47866;SDS011;33628;50.806;11.586;2023-05-07T00:41:30;38.63;;;23.52;;
47866;SDS011;33628;50.806;11.586;2023-05-07T00:43:57;38.58;;;23.15;;
47866;SDS011;33628;50.806;11.586;2023-05-07T00:46:24;42.03;;;23.92;;
47866;SDS011;33628;50.806;11.586;2023-05-07T00:48:51;36.45;;;23.58;;
47866;SDS011;33628;50.806;11.586;2023-05-07T00:51:19;34.95;;;21.17;;
47866;SDS011;33628;50.806;11.586;2023-05-07T00:53:47;40.60;;;22.52;;
47866;SDS011;33628;50.806;11.586;2023-05-07T00:56:14;41.53;;;23.73;;
47866;SDS011;33628;50.806;11.586;2023-05-07T00:58:41;36.88;;;23.27;;
47866;SDS011;33628;50.806;11.586;2023-05-07T01:01:08;36.30;;;22.17;;
47866;SDS011;33628;50.806;11.586;2023-05-07T01:03:34;39.35;;;23.10;;
47866;SDS011;33628;50.806;11.586;2023-05-07T01:06:01;37.22;;;23.25;;
47866;SDS011;33628;50.806;11.586;2023-05-07T01:08:29;38.33;;;23.85;;
47866;SDS011;33628;50.806;11.586;2023-05-07T01:10:58;39.20;;;22.27;;
47866;SDS011;33628;50.806;11.586;2023-05-07T01:13:31;38.83;;;22.30;;
47866;SDS011;33628;50.806;11.586;2023-05-07T01:16:00;37.90;;;22.63;;
47866;SDS011;33628;50.806;11.586;2023-05-07T01:18:27;36.42;;;22.50;;
47866;SDS011;33628;50.806;11.586;2023-05-07T01:20:56;34.40;;;21.52;;
47866;SDS011;33628;50.806;11.586;2023-05-07T01:23:29;35.38;;;21.52;;
47866;SDS011;33628;50.806;11.586;2023-05-07T01:25:56;37.38;;;22.10;;
47866;SDS011;33628;50.806;11.586;2023-05-07T01:28:25;39.17;;;22.25;;
47866;SDS011;33628;50.806;11.586;2023-05-07T01:30:56;33.50;;;20.75;;
47866;SDS011;33628;50.806;11.586;2023-05-07T01:33:27;34.40;;;20.45;;
47866;SDS011;33628;50.806;11.586;2023-05-07T01:35:57;35.03;;;20.52;;
47866;SDS011;33628;50.806;11.586;2023-05-07T01:38:29;32.72;;;20.65;;
47866;SDS011;33628;50.806;11.586;2023-05-07T01:40:56;31.65;;;20.60;;
47866;SDS011;33628;50.806;11.586;2023-05-07T01:43:23;37.17;;;20.98;;
47866;SDS011;33628;50.806;11.586;2023-05-07T01:45:50;35.13;;;20.00;;
47866;SDS011;33628;50.806;11.586;2023-05-07T01:48:18;33.35;;;20.17;;
47866;SDS011;33628;50.806;11.586;2023-05-07T01:50:45;31.90;;;18.98;;
47866;SDS011;33628;50.806;11.586;2023-05-07T01:53:12;33.60;;;19.40;;
47866;SDS011;33628;50.806;11.586;2023-05-07T01:55:40;29.92;;;19.25;;
47866;SDS011;33628;50.806;11.586;2023-05-07T01:58:08;30.73;;;19.35;;
47866;SDS011;33628;50.806;11.586;2023-05-07T02:00:34;30.67;;;18.80;;
47866;SDS011;33628;50.806;11.586;2023-05-07T02:03:02;33.72;;;20.08;;
47866;SDS011;33628;50.806;11.586;2023-05-07T02:05:55;28.80;;;19.52;;
47866;SDS011;33628;50.806;11.586;2023-05-07T02:08:29;30.45;;;19.15;;
47866;SDS011;33628;50.806;11.586;2023-05-07T02:10:58;33.75;;;19.17;;
47866;SDS011;33628;50.806;11.586;2023-05-07T02:13:26;31.85;;;18.48;;
47866;SDS011;33628;50.806;11.586;2023-05-07T02:15:54;31.90;;;19.50;;
47866;SDS011;33628;50.806;11.586;2023-05-07T02:18:22;30.50;;;19.50;;
47866;SDS011;33628;50.806;11.586;2023-05-07T02:20:49;27.75;;;17.65;;
47866;SDS011;33628;50.806;11.586;2023-05-07T02:23:16;30.23;;;18.48;;
47866;SDS011;33628;50.806;11.586;2023-05-07T02:25:42;29.15;;;17.90;;
47866;SDS011;33628;50.806;11.586;2023-05-07T02:28:10;29.42;;;17.33;;
47866;SDS011;33628;50.806;11.586;2023-05-07T02:30:58;28.52;;;17.95;;
47866;SDS011;33628;50.806;11.586;2023-05-07T02:33:26;29.02;;;18.20;;
47866;SDS011;33628;50.806;11.586;2023-05-07T02:35:53;25.95;;;17.55;;
47866;SDS011;33628;50.806;11.586;2023-05-07T02:38:20;27.77;;;16.85;;
47866;SDS011;33628;50.806;11.586;2023-05-07T02:40:47;26.50;;;17.48;;
47866;SDS011;33628;50.806;11.586;2023-05-07T02:43:15;23.98;;;16.90;;
47866;SDS011;33628;50.806;11.586;2023-05-07T02:45:45;29.25;;;17.60;;
47866;SDS011;33628;50.806;11.586;2023-05-07T02:48:13;27.83;;;17.35;;
47866;SDS011;33628;50.806;11.586;2023-05-07T02:50:39;26.38;;;16.33;;
47866;SDS011;33628;50.806;11.586;2023-05-07T02:53:06;28.17;;;16.95;;
47866;SDS011;33628;50.806;11.586;2023-05-07T02:55:33;29.60;;;16.73;;
47866;SDS011;33628;50.806;11.586;2023-05-07T02:58:00;24.77;;;16.48;;
47866;SDS011;33628;50.806;11.586;2023-05-07T03:00:28;25.13;;;16.08;;
47866;SDS011;33628;50.806;11.586;2023-05-07T03:03:07;24.02;;;15.63;;
47866;SDS011;33628;50.806;11.586;2023-05-07T03:05:33;25.42;;;16.10;;
47866;SDS011;33628;50.806;11.586;2023-05-07T03:08:00;25.08;;;16.27;;
47866;SDS011;33628;50.806;11.586;2023-05-07T03:10:27;24.40;;;15.15;;
47866;SDS011;33628;50.806;11.586;2023-05-07T03:12:54;23.02;;;15.57;;
47866;SDS011;33628;50.806;11.586;2023-05-07T03:15:21;30.45;;;15.80;;
47866;SDS011;33628;50.806;11.586;2023-05-07T03:17:49;26.73;;;16.10;;
47866;SDS011;33628;50.806;11.586;2023-05-07T03:20:16;22.15;;;15.13;;
47866;SDS011;33628;50.806;11.586;2023-05-07T03:22:43;22.33;;;14.95;;
47866;SDS011;33628;50.806;11.586;2023-05-07T03:25:09;28.80;;;15.27;;
47866;SDS011;33628;50.806;11.586;2023-05-07T03:27:36;22.55;;;13.90;;
47866;SDS011;33628;50.806;11.586;2023-05-07T03:30:04;21.83;;;14.30;;
47866;SDS011;33628;50.806;11.586;2023-05-07T03:32:33;23.05;;;14.98;;
47866;SDS011;33628;50.806;11.586;2023-05-07T03:35:02;23.33;;;14.85;;
47866;SDS011;33628;50.806;11.586;2023-05-07T03:37:29;20.95;;;13.40;;
47866;SDS011;33628;50.806;11.586;2023-05-07T03:39:56;21.70;;;13.35;;
47866;SDS011;33628;50.806;11.586;2023-05-07T03:42:23;21.13;;;13.60;;
47866;SDS011;33628;50.806;11.586;2023-05-07T03:44:52;20.88;;;12.65;;
47866;SDS011;33628;50.806;11.586;2023-05-07T03:47:19;20.15;;;13.20;;
47866;SDS011;33628;50.806;11.586;2023-05-07T03:49:47;20.13;;;13.02;;
47866;SDS011;33628;50.806;11.586;2023-05-07T03:52:16;18.45;;;12.43;;
47866;SDS011;33628;50.806;11.586;2023-05-07T03:54:48;17.55;;;11.57;;
47866;SDS011;33628;50.806;11.586;2023-05-07T03:57:16;18.92;;;11.57;;
47866;SDS011;33628;50.806;11.586;2023-05-07T03:59:42;18.75;;;12.20;;
47866;SDS011;33628;50.806;11.586;2023-05-07T04:02:09;18.70;;;11.75;;
47866;SDS011;33628;50.806;11.586;2023-05-07T04:04:36;17.30;;;11.55;;
47866;SDS011;33628;50.806;11.586;2023-05-07T04:07:02;17.95;;;11.50;;
47866;SDS011;33628;50.806;11.586;2023-05-07T04:09:36;15.63;;;10.50;;
47866;SDS011;33628;50.806;11.586;2023-05-07T04:12:03;16.38;;;10.95;;
47866;SDS011;33628;50.806;11.586;2023-05-07T04:14:30;17.30;;;11.52;;
47866;SDS011;33628;50.806;11.586;2023-05-07T04:16:58;17.90;;;11.18;;
47866;SDS011;33628;50.806;11.586;2023-05-07T04:19:25;16.27;;;10.52;;
47866;SDS011;33628;50.806;11.586;2023-05-07T04:21:53;17.38;;;10.75;;
47866;SDS011;33628;50.806;11.586;2023-05-07T04:24:20;18.48;;;10.73;;
47866;SDS011;33628;50.806;11.586;2023-05-07T04:26:48;15.10;;;10.40;;
47866;SDS011;33628;50.806;11.586;2023-05-07T04:29:15;15.13;;;10.38;;
47866;SDS011;33628;50.806;11.586;2023-05-07T04:31:42;17.50;;;10.60;;
47866;SDS011;33628;50.806;11.586;2023-05-07T04:34:10;17.15;;;10.27;;
47866;SDS011;33628;50.806;11.586;2023-05-07T04:36:37;18.50;;;11.32;;
47866;SDS011;33628;50.806;11.586;2023-05-07T04:39:09;15.60;;;9.85;;
47866;SDS011;33628;50.806;11.586;2023-05-07T04:41:37;16.10;;;9.85;;
47866;SDS011;33628;50.806;11.586;2023-05-07T04:44:07;15.85;;;10.32;;
47866;SDS011;33628;50.806;11.586;2023-05-07T04:46:35;14.88;;;9.82;;
47866;SDS011;33628;50.806;11.586;2023-05-07T04:49:02;15.70;;;10.02;;
47866;SDS011;33628;50.806;11.586;2023-05-07T04:51:29;18.33;;;10.50;;
47866;SDS011;33628;50.806;11.586;2023-05-07T04:53:58;14.98;;;10.90;;
47866;SDS011;33628;50.806;11.586;2023-05-07T04:56:27;15.13;;;9.23;;
47866;SDS011;33628;50.806;11.586;2023-05-07T04:58:59;15.55;;;9.85;;
47866;SDS011;33628;50.806;11.586;2023-05-07T05:01:28;15.75;;;10.35;;
47866;SDS011;33628;50.806;11.586;2023-05-07T05:03:55;15.35;;;9.40;;
47866;SDS011;33628;50.806;11.586;2023-05-07T05:06:22;17.92;;;11.10;;
47866;SDS011;33628;50.806;11.586;2023-05-07T05:08:49;17.95;;;12.88;;
47866;SDS011;33628;50.806;11.586;2023-05-07T05:11:16;20.80;;;13.85;;
47866;SDS011;33628;50.806;11.586;2023-05-07T05:13:42;22.95;;;14.27;;
47866;SDS011;33628;50.806;11.586;2023-05-07T05:16:14;21.48;;;14.02;;
47866;SDS011;33628;50.806;11.586;2023-05-07T05:18:42;29.42;;;15.25;;
47866;SDS011;33628;50.806;11.586;2023-05-07T05:21:11;25.38;;;15.85;;
47866;SDS011;33628;50.806;11.586;2023-05-07T05:23:39;25.85;;;16.17;;
47866;SDS011;33628;50.806;11.586;2023-05-07T05:26:06;21.85;;;14.98;;
47866;SDS011;33628;50.806;11.586;2023-05-07T05:28:33;25.92;;;16.60;;
47866;SDS011;33628;50.806;11.586;2023-05-07T05:31:02;23.42;;;15.38;;
47866;SDS011;33628;50.806;11.586;2023-05-07T05:33:32;22.63;;;14.77;;
47866;SDS011;33628;50.806;11.586;2023-05-07T05:36:05;28.00;;;17.75;;
47866;SDS011;33628;50.806;11.586;2023-05-07T05:38:33;25.80;;;16.42;;
47866;SDS011;33628;50.806;11.586;2023-05-07T05:41:00;26.33;;;16.52;;
47866;SDS011;33628;50.806;11.586;2023-05-07T05:43:28;26.15;;;14.90;;
47866;SDS011;33628;50.806;11.586;2023-05-07T05:45:55;25.30;;;15.70;;
47866;SDS011;33628;50.806;11.586;2023-05-07T05:48:22;23.27;;;15.45;;
47866;SDS011;33628;50.806;11.586;2023-05-07T05:50:52;25.85;;;16.40;;
47866;SDS011;33628;50.806;11.586;2023-05-07T05:53:20;27.48;;;16.98;;
47866;SDS011;33628;50.806;11.586;2023-05-07T05:55:47;26.77;;;15.77;;
47866;SDS011;33628;50.806;11.586;2023-05-07T05:58:14;27.20;;;16.08;;
47866;SDS011;33628;50.806;11.586;2023-05-07T06:00:45;28.77;;;17.13;;
47866;SDS011;33628;50.806;11.586;2023-05-07T06:03:14;28.10;;;16.58;;
47866;SDS011;33628;50.806;11.586;2023-05-07T06:05:42;28.83;;;17.73;;
47866;SDS011;33628;50.806;11.586;2023-05-07T06:08:08;28.95;;;17.58;;
47866;SDS011;33628;50.806;11.586;2023-05-07T06:10:37;23.95;;;15.85;;
47866;SDS011;33628;50.806;11.586;2023-05-07T06:13:06;28.70;;;16.77;;
47866;SDS011;33628;50.806;11.586;2023-05-07T06:15:34;28.27;;;16.40;;
47866;SDS011;33628;50.806;11.586;2023-05-07T06:18:06;29.92;;;16.35;;
47866;SDS011;33628;50.806;11.586;2023-05-07T06:20:33;26.48;;;16.52;;
47866;SDS011;33628;50.806;11.586;2023-05-07T06:23:04;25.23;;;15.60;;
47866;SDS011;33628;50.806;11.586;2023-05-07T06:25:34;26.48;;;14.85;;
47866;SDS011;33628;50.806;11.586;2023-05-07T06:28:02;28.42;;;15.23;;
47866;SDS011;33628;50.806;11.586;2023-05-07T06:30:30;33.97;;;17.33;;
47866;SDS011;33628;50.806;11.586;2023-05-07T06:32:56;24.75;;;16.17;;
47866;SDS011;33628;50.806;11.586;2023-05-07T06:39:31;23.95;;;15.93;;
47866;SDS011;33628;50.806;11.586;2023-05-07T06:42:00;25.33;;;14.95;;
47866;SDS011;33628;50.806;11.586;2023-05-07T06:44:32;25.35;;;15.80;;
47866;SDS011;33628;50.806;11.586;2023-05-07T06:47:06;26.40;;;15.82;;
47866;SDS011;33628;50.806;11.586;2023-05-07T06:49:34;24.40;;;15.05;;
47866;SDS011;33628;50.806;11.586;2023-05-07T06:52:01;26.10;;;16.10;;
47866;SDS011;33628;50.806;11.586;2023-05-07T06:54:29;24.88;;;15.13;;
47866;SDS011;33628;50.806;11.586;2023-05-07T06:56:56;25.95;;;15.43;;
47866;SDS011;33628;50.806;11.586;2023-05-07T06:59:24;26.35;;;16.23;;
47866;SDS011;33628;50.806;11.586;2023-05-07T07:01:53;26.63;;;16.17;;
47866;SDS011;33628;50.806;11.586;2023-05-07T07:04:20;25.52;;;16.27;;
47866;SDS011;33628;50.806;11.586;2023-05-07T07:07:00;25.08;;;16.63;;
47866;SDS011;33628;50.806;11.586;2023-05-07T07:09:28;28.42;;;16.65;;
47866;SDS011;33628;50.806;11.586;2023-05-07T07:11:54;31.88;;;17.80;;
47866;SDS011;33628;50.806;11.586;2023-05-07T07:14:21;26.63;;;16.83;;
47866;SDS011;33628;50.806;11.586;2023-05-07T07:16:50;31.65;;;17.33;;
47866;SDS011;33628;50.806;11.586;2023-05-07T07:19:21;30.35;;;17.33;;
47866;SDS011;33628;50.806;11.586;2023-05-07T07:21:51;25.00;;;15.55;;
47866;SDS011;33628;50.806;11.586;2023-05-07T07:24:21;28.50;;;16.63;;
47866;SDS011;33628;50.806;11.586;2023-05-07T07:35:07;27.92;;;16.08;;
47866;SDS011;33628;50.806;11.586;2023-05-07T07:41:22;24.40;;;15.80;;
47866;SDS011;33628;50.806;11.586;2023-05-07T07:43:49;25.70;;;15.68;;
47866;SDS011;33628;50.806;11.586;2023-05-07T07:46:20;27.48;;;15.38;;
47866;SDS011;33628;50.806;11.586;2023-05-07T07:48:47;23.00;;;14.60;;
47866;SDS011;33628;50.806;11.586;2023-05-07T07:51:16;22.80;;;14.13;;
47866;SDS011;33628;50.806;11.586;2023-05-07T07:53:42;21.25;;;13.40;;
47866;SDS011;33628;50.806;11.586;2023-05-07T07:56:09;23.40;;;14.73;;
47866;SDS011;33628;50.806;11.586;2023-05-07T07:58:37;24.13;;;14.50;;
47866;SDS011;33628;50.806;11.586;2023-05-07T08:01:05;22.75;;;13.68;;
47866;SDS011;33628;50.806;11.586;2023-05-07T08:03:32;24.27;;;14.35;;
47866;SDS011;33628;50.806;11.586;2023-05-07T08:06:01;26.08;;;15.65;;
47866;SDS011;33628;50.806;11.586;2023-05-07T08:08:29;25.85;;;15.13;;
47866;SDS011;33628;50.806;11.586;2023-05-07T08:10:57;21.77;;;13.93;;
47866;SDS011;33628;50.806;11.586;2023-05-07T08:13:29;24.45;;;14.52;;
47866;SDS011;33628;50.806;11.586;2023-05-07T08:15:58;24.35;;;14.77;;
47866;SDS011;33628;50.806;11.586;2023-05-07T08:18:25;26.10;;;14.85;;
47866;SDS011;33628;50.806;11.586;2023-05-07T08:20:52;24.73;;;14.52;;
47866;SDS011;33628;50.806;11.586;2023-05-07T08:23:22;25.55;;;15.27;;
47866;SDS011;33628;50.806;11.586;2023-05-07T08:25:53;24.65;;;15.32;;
47866;SDS011;33628;50.806;11.586;2023-05-07T08:28:20;24.80;;;14.98;;
47866;SDS011;33628;50.806;11.586;2023-05-07T08:30:47;23.48;;;14.98;;
47866;SDS011;33628;50.806;11.586;2023-05-07T08:36:59;24.88;;;15.05;;
47866;SDS011;33628;50.806;11.586;2023-05-07T08:39:30;22.80;;;15.32;;
47866;SDS011;33628;50.806;11.586;2023-05-07T08:42:01;26.23;;;14.45;;
47866;SDS011;33628;50.806;11.586;2023-05-07T08:47:03;23.13;;;14.95;;
47866;SDS011;33628;50.806;11.586;2023-05-07T08:49:34;21.45;;;14.35;;
47866;SDS011;33628;50.806;11.586;2023-05-07T08:52:02;21.67;;;14.48;;
47866;SDS011;33628;50.806;11.586;2023-05-07T08:54:30;22.23;;;14.98;;
47866;SDS011;33628;50.806;11.586;2023-05-07T08:57:00;21.52;;;13.82;;
47866;SDS011;33628;50.806;11.586;2023-05-07T08:59:27;20.33;;;13.07;;
47866;SDS011;33628;50.806;11.586;2023-05-07T09:01:54;22.45;;;13.85;;
47866;SDS011;33628;50.806;11.586;2023-05-07T09:04:21;19.73;;;13.75;;
47866;SDS011;33628;50.806;11.586;2023-05-07T09:06:49;20.95;;;14.25;;
47866;SDS011;33628;50.806;11.586;2023-05-07T09:09:21;20.77;;;14.73;;
47866;SDS011;33628;50.806;11.586;2023-05-07T09:11:56;21.35;;;13.95;;
47866;SDS011;33628;50.806;11.586;2023-05-07T09:14:27;18.35;;;13.18;;
47866;SDS011;33628;50.806;11.586;2023-05-07T09:16:55;20.85;;;12.98;;
47866;SDS011;33628;50.806;11.586;2023-05-07T09:19:22;21.05;;;13.20;;
47866;SDS011;33628;50.806;11.586;2023-05-07T09:21:57;19.77;;;12.65;;
47866;SDS011;33628;50.806;11.586;2023-05-07T09:24:25;19.00;;;12.48;;
47866;SDS011;33628;50.806;11.586;2023-05-07T09:26:53;19.40;;;11.48;;
47866;SDS011;33628;50.806;11.586;2023-05-07T09:29:22;20.00;;;12.73;;
47866;SDS011;33628;50.806;11.586;2023-05-07T09:31:50;18.17;;;12.13;;
47866;SDS011;33628;50.806;11.586;2023-05-07T09:34:18;16.83;;;11.85;;
47866;SDS011;33628;50.806;11.586;2023-05-07T09:36:46;18.67;;;12.10;;
47866;SDS011;33628;50.806;11.586;2023-05-07T09:39:14;21.35;;;12.63;;
47866;SDS011;33628;50.806;11.586;2023-05-07T09:41:44;17.90;;;11.88;;
47866;SDS011;33628;50.806;11.586;2023-05-07T09:44:18;19.58;;;11.77;;
47866;SDS011;33628;50.806;11.586;2023-05-07T09:46:51;20.30;;;12.45;;
47866;SDS011;33628;50.806;11.586;2023-05-07T09:49:27;16.25;;;12.13;;
47866;SDS011;33628;50.806;11.586;2023-05-07T09:55:36;18.42;;;12.27;;
47866;SDS011;33628;50.806;11.586;2023-05-07T09:58:05;17.98;;;12.23;;
47866;SDS011;33628;50.806;11.586;2023-05-07T10:00:33;17.10;;;12.10;;
47866;SDS011;33628;50.806;11.586;2023-05-07T10:03:10;17.45;;;12.00;;
47866;SDS011;33628;50.806;11.586;2023-05-07T10:05:58;16.13;;;10.77;;
47866;SDS011;33628;50.806;11.586;2023-05-07T10:08:24;18.70;;;11.60;;
47866;SDS011;33628;50.806;11.586;2023-05-07T10:15:01;16.33;;;10.40;;
47866;SDS011;33628;50.806;11.586;2023-05-07T10:17:28;14.75;;;10.18;;
47866;SDS011;33628;50.806;11.586;2023-05-07T10:19:57;13.45;;;9.30;;
47866;SDS011;33628;50.806;11.586;2023-05-07T10:22:24;15.75;;;9.95;;
47866;SDS011;33628;50.806;11.586;2023-05-07T10:24:54;17.23;;;10.40;;
47866;SDS011;33628;50.806;11.586;2023-05-07T10:27:22;14.35;;;9.88;;
47866;SDS011;33628;50.806;11.586;2023-05-07T10:29:56;16.08;;;11.48;;
47866;SDS011;33628;50.806;11.586;2023-05-07T10:32:33;15.98;;;10.77;;
47866;SDS011;33628;50.806;11.586;2023-05-07T10:35:06;16.92;;;11.63;;
47866;SDS011;33628;50.806;11.586;2023-05-07T10:37:37;14.95;;;11.02;;
47866;SDS011;33628;50.806;11.586;2023-05-07T10:40:04;14.52;;;10.60;;
47866;SDS011;33628;50.806;11.586;2023-05-07T10:42:33;15.02;;;9.98;;
47866;SDS011;33628;50.806;11.586;2023-05-07T10:45:11;14.80;;;10.50;;
47866;SDS011;33628;50.806;11.586;2023-05-07T10:50:37;16.90;;;10.25;;
47866;SDS011;33628;50.806;11.586;2023-05-07T10:53:24;14.10;;;9.93;;
47866;SDS011;33628;50.806;11.586;2023-05-07T11:02:12;13.50;;;8.63;;
47866;SDS011;33628;50.806;11.586;2023-05-07T11:08:16;12.57;;;9.02;;
47866;SDS011;33628;50.806;11.586;2023-05-07T11:10:58;12.63;;;8.85;;
47866;SDS011;33628;50.806;11.586;2023-05-07T11:13:44;11.90;;;8.38;;
47866;SDS011;33628;50.806;11.586;2023-05-07T11:16:22;11.45;;;7.93;;
47866;SDS011;33628;50.806;11.586;2023-05-07T11:18:58;12.50;;;8.27;;
47866;SDS011;33628;50.806;11.586;2023-05-07T11:21:36;11.77;;;8.38;;
47866;SDS011;33628;50.806;11.586;2023-05-07T11:24:27;12.82;;;8.93;;
47866;SDS011;33628;50.806;11.586;2023-05-07T11:27:03;12.77;;;8.70;;
47866;SDS011;33628;50.806;11.586;2023-05-07T11:29:31;13.02;;;9.45;;
47866;SDS011;33628;50.806;11.586;2023-05-07T11:32:16;11.15;;;8.23;;
47866;SDS011;33628;50.806;11.586;2023-05-07T11:34:52;12.68;;;8.43;;
47866;SDS011;33628;50.806;11.586;2023-05-07T11:37:19;10.70;;;8.10;;
47866;SDS011;33628;50.806;11.586;2023-05-07T11:40:09;12.05;;;8.90;;
47866;SDS011;33628;50.806;11.586;2023-05-07T11:42:40;11.40;;;8.50;;
47866;SDS011;33628;50.806;11.586;2023-05-07T11:45:09;12.15;;;8.25;;
47866;SDS011;33628;50.806;11.586;2023-05-07T11:47:37;12.32;;;8.50;;
47866;SDS011;33628;50.806;11.586;2023-05-07T11:50:07;10.38;;;7.72;;
47866;SDS011;33628;50.806;11.586;2023-05-07T11:52:36;12.25;;;8.07;;
47866;SDS011;33628;50.806;11.586;2023-05-07T11:55:05;11.13;;;7.60;;
47866;SDS011;33628;50.806;11.586;2023-05-07T11:57:37;12.18;;;7.78;;
47866;SDS011;33628;50.806;11.586;2023-05-07T12:00:05;11.45;;;7.28;;
47866;SDS011;33628;50.806;11.586;2023-05-07T12:02:41;11.18;;;7.93;;
47866;SDS011;33628;50.806;11.586;2023-05-07T12:05:08;11.18;;;7.20;;
47866;SDS011;33628;50.806;11.586;2023-05-07T12:07:35;10.18;;;7.30;;
47866;SDS011;33628;50.806;11.586;2023-05-07T12:10:05;12.75;;;8.57;;
47866;SDS011;33628;50.806;11.586;2023-05-07T12:12:39;11.43;;;7.72;;
47866;SDS011;33628;50.806;11.586;2023-05-07T12:15:07;10.52;;;8.18;;
47866;SDS011;33628;50.806;11.586;2023-05-07T12:17:34;11.80;;;7.80;;
47866;SDS011;33628;50.806;11.586;2023-05-07T12:20:01;11.98;;;8.27;;
47866;SDS011;33628;50.806;11.586;2023-05-07T12:22:29;10.25;;;7.80;;
47866;SDS011;33628;50.806;11.586;2023-05-07T12:24:56;9.95;;;7.10;;
47866;SDS011;33628;50.806;11.586;2023-05-07T12:27:25;9.63;;;7.22;;
47866;SDS011;33628;50.806;11.586;2023-05-07T12:29:53;9.35;;;7.10;;
47866;SDS011;33628;50.806;11.586;2023-05-07T12:32:20;8.30;;;6.60;;
47866;SDS011;33628;50.806;11.586;2023-05-07T12:34:49;10.32;;;7.38;;
47866;SDS011;33628;50.806;11.586;2023-05-07T12:37:22;9.57;;;6.60;;
47866;SDS011;33628;50.806;11.586;2023-05-07T12:40:02;7.75;;;6.18;;
47866;SDS011;33628;50.806;11.586;2023-05-07T12:42:32;10.65;;;6.32;;
47866;SDS011;33628;50.806;11.586;2023-05-07T12:45:08;7.88;;;6.25;;
47866;SDS011;33628;50.806;11.586;2023-05-07T12:47:35;7.93;;;6.47;;
47866;SDS011;33628;50.806;11.586;2023-05-07T12:50:04;12.13;;;6.50;;
47866;SDS011;33628;50.806;11.586;2023-05-07T12:52:32;10.60;;;7.50;;
47866;SDS011;33628;50.806;11.586;2023-05-07T12:55:04;9.98;;;5.88;;
47866;SDS011;33628;50.806;11.586;2023-05-07T12:57:37;7.00;;;5.47;;
47866;SDS011;33628;50.806;11.586;2023-05-07T13:00:06;8.27;;;5.95;;
47866;SDS011;33628;50.806;11.586;2023-05-07T13:02:37;11.82;;;7.32;;
47866;SDS011;33628;50.806;11.586;2023-05-07T13:05:05;7.82;;;6.20;;
47866;SDS011;33628;50.806;11.586;2023-05-07T13:07:32;8.18;;;5.97;;
47866;SDS011;33628;50.806;11.586;2023-05-07T13:09:58;6.97;;;5.63;;
47866;SDS011;33628;50.806;11.586;2023-05-07T13:12:25;8.65;;;6.35;;
47866;SDS011;33628;50.806;11.586;2023-05-07T13:14:52;9.50;;;6.38;;
47866;SDS011;33628;50.806;11.586;2023-05-07T13:17:20;8.60;;;6.32;;
47866;SDS011;33628;50.806;11.586;2023-05-07T13:19:46;8.13;;;6.20;;
47866;SDS011;33628;50.806;11.586;2023-05-07T13:22:14;9.32;;;6.05;;
47866;SDS011;33628;50.806;11.586;2023-05-07T13:24:41;7.72;;;5.75;;
47866;SDS011;33628;50.806;11.586;2023-05-07T13:27:09;7.55;;;5.70;;
47866;SDS011;33628;50.806;11.586;2023-05-07T13:29:36;9.35;;;5.93;;
47866;SDS011;33628;50.806;11.586;2023-05-07T13:32:02;8.15;;;5.25;;
47866;SDS011;33628;50.806;11.586;2023-05-07T13:34:31;7.43;;;5.38;;
47866;SDS011;33628;50.806;11.586;2023-05-07T13:36:57;7.43;;;5.68;;
47866;SDS011;33628;50.806;11.586;2023-05-07T13:39:24;8.75;;;6.18;;
47866;SDS011;33628;50.806;11.586;2023-05-07T13:41:51;7.30;;;5.18;;
47866;SDS011;33628;50.806;11.586;2023-05-07T13:44:17;9.63;;;5.90;;
47866;SDS011;33628;50.806;11.586;2023-05-07T13:46:44;7.45;;;5.13;;
47866;SDS011;33628;50.806;11.586;2023-05-07T13:49:11;7.13;;;5.68;;
47866;SDS011;33628;50.806;11.586;2023-05-07T13:51:40;7.07;;;5.47;;
47866;SDS011;33628;50.806;11.586;2023-05-07T13:54:07;8.73;;;5.35;;
47866;SDS011;33628;50.806;11.586;2023-05-07T13:56:33;7.50;;;5.40;;
47866;SDS011;33628;50.806;11.586;2023-05-07T13:59:01;7.18;;;5.30;;
47866;SDS011;33628;50.806;11.586;2023-05-07T14:01:28;7.00;;;5.60;;
47866;SDS011;33628;50.806;11.586;2023-05-07T14:03:57;7.35;;;4.95;;
47866;SDS011;33628;50.806;11.586;2023-05-07T14:06:25;7.40;;;5.00;;
47866;SDS011;33628;50.806;11.586;2023-05-07T14:08:53;6.80;;;5.45;;
47866;SDS011;33628;50.806;11.586;2023-05-07T14:11:20;5.82;;;4.78;;
47866;SDS011;33628;50.806;11.586;2023-05-07T14:13:47;6.53;;;4.47;;
47866;SDS011;33628;50.806;11.586;2023-05-07T14:16:13;5.03;;;4.13;;
47866;SDS011;33628;50.806;11.586;2023-05-07T14:18:40;7.15;;;5.07;;
47866;SDS011;33628;50.806;11.586;2023-05-07T14:21:07;6.13;;;4.40;;
47866;SDS011;33628;50.806;11.586;2023-05-07T14:23:35;6.43;;;4.70;;
47866;SDS011;33628;50.806;11.586;2023-05-07T14:26:03;6.78;;;4.70;;
47866;SDS011;33628;50.806;11.586;2023-05-07T14:28:33;5.15;;;4.43;;
47866;SDS011;33628;50.806;11.586;2023-05-07T14:30:59;7.65;;;4.63;;
47866;SDS011;33628;50.806;11.586;2023-05-07T14:33:27;5.03;;;4.13;;
47866;SDS011;33628;50.806;11.586;2023-05-07T14:35:53;5.63;;;4.18;;
47866;SDS011;33628;50.806;11.586;2023-05-07T14:38:20;6.45;;;3.88;;
47866;SDS011;33628;50.806;11.586;2023-05-07T14:40:47;4.68;;;4.18;;
47866;SDS011;33628;50.806;11.586;2023-05-07T14:43:15;5.50;;;3.78;;
47866;SDS011;33628;50.806;11.586;2023-05-07T14:45:42;4.40;;;3.80;;
47866;SDS011;33628;50.806;11.586;2023-05-07T14:48:09;5.35;;;4.00;;
47866;SDS011;33628;50.806;11.586;2023-05-07T14:50:40;5.18;;;3.90;;
47866;SDS011;33628;50.806;11.586;2023-05-07T14:53:07;7.07;;;4.07;;
47866;SDS011;33628;50.806;11.586;2023-05-07T14:55:34;4.00;;;3.58;;
47866;SDS011;33628;50.806;11.586;2023-05-07T14:58:00;5.53;;;3.97;;
47866;SDS011;33628;50.806;11.586;2023-05-07T15:00:31;3.97;;;3.00;;
47866;SDS011;33628;50.806;11.586;2023-05-07T15:03:02;8.63;;;4.00;;
47866;SDS011;33628;50.806;11.586;2023-05-07T15:05:31;3.90;;;3.13;;
47866;SDS011;33628;50.806;11.586;2023-05-07T15:07:58;5.00;;;3.38;;
47866;SDS011;33628;50.806;11.586;2023-05-07T15:10:25;5.15;;;3.95;;